Terminal Aerodrome Forecast
Issued by NWS

Home | Current Version | Previous Version | Text Only | Print | Product List | Glossary On
Versions: 1 2 3 4 5 6 7 8 9 10 11 12
000
FTPQ31 PGUM 010520
TAFGUM
TAF

TAF
PTYA 010520Z 0106/0206 07008KT P6SM FEW017=

USA.gov is the U.S. government's official web portal to all federal, state and local government web resources and services.